Latest Weather Observations for Cairns

IDQ60801

Issued at 10:02 pm EST Sunday 21 December 2014 (issued every 30 minutes, with the page automatically refreshed every 10 minutes)

About weather observations | Map of weather stations | Latest weather observations for QLD | Other Formats
Station Details ID: 031011 Name: CAIRNS AERO Lat: -16.87 Lon: 145.75 Height: 2.22 m
Data from the previous 72 hours. | See also: Recent months at Cairns
Date/Time
EST
Temp
°C
App
Temp
°C
Dew
Point
Rel
Hum
%
Delta-T
°C
Wind Press
QNH
hPa
Press
MSL
hPa
Rain
since 9 am
mm
Dir
 
Spd
km/h
Gust
km/h
Spd
kts
Gust
kts
21/09:30pm 26.2 28.5 23.4 84 1.9 SE 17 22 9 12 1011.8 - 0.0
21/09:00pm 27.4 29.4 23.0 77 3.0 SSE 17 22 9 12 1011.6 1011.5 0.0
21/08:30pm 27.8 29.1 22.6 73 3.5 SE 20 26 11 14 1011.4 - 0.0
21/08:00pm 27.9 29.3 22.6 73 3.6 SSE 19 28 10 15 1011.3 - 0.0
21/07:30pm 28.2 29.6 22.8 72 3.7 SE 20 28 11 15 1011.0 - 0.0
21/07:00pm 28.5 30.3 22.6 70 4.0 SE 17 22 9 12 1010.9 - 0.0
21/06:30pm 28.9 29.0 21.9 66 4.7 SE 24 30 13 16 1010.4 - 0.0
21/06:00pm 29.1 27.8 21.3 62 5.2 SE 30 37 16 20 1010.0 1009.9 0.0
21/05:30pm 30.1 28.8 21.3 59 5.9 SE 30 35 16 19 1009.7 - 0.0
21/05:00pm 30.6 30.5 22.2 61 5.7 ESE 26 33 14 18 1009.7 - 0.0
21/04:30pm 31.1 30.0 21.8 57 6.3 E 30 35 16 19 1009.6 - 0.0
21/04:00pm 31.4 31.2 22.0 57 6.4 E 26 35 14 19 1009.6 - 0.0
21/03:30pm 31.9 31.9 21.7 54 6.9 ESE 24 32 13 17 1009.6 - 0.0
21/03:00pm 32.2 31.3 21.4 53 7.3 ENE 28 35 15 19 1009.9 1009.8 0.0
21/02:30pm 32.6 31.0 20.1 47 8.3 E 28 33 15 18 1010.2 - 0.0
21/02:00pm 31.8 30.4 20.4 51 7.6 E 28 33 15 18 1010.4 - 0.0
21/01:30pm 31.6 31.3 21.9 56 6.6 ENE 26 33 14 18 1010.7 - 0.0
21/01:00pm 32.0 32.9 23.3 60 6.0 NE 24 33 13 18 1011.0 - 0.0
21/12:30pm 32.2 32.9 22.9 58 6.4 NE 24 32 13 17 1011.4 - 0.0
21/12:00pm 32.3 33.1 21.8 54 7.1 NE 20 28 11 15 1011.7 1011.6 0.0
21/11:30am 31.4 32.2 21.3 55 6.8 NE 19 26 10 14 1012.2 - 0.0
21/11:00am 31.3 32.2 22.0 57 6.3 ENE 20 26 11 14 1012.2 - 0.0
21/10:30am 31.2 32.5 22.4 59 6.0 ENE 19 26 10 14 1012.3 - 0.0
21/10:00am 30.6 32.4 21.9 59 5.9 E 15 20 8 11 1012.5 - 0.0
21/09:30am 30.1 31.8 21.6 60 5.7 ESE 15 19 8 10 1012.7 - 0.0
21/08:30am 29.2 31.5 22.1 65 4.8 SE 13 19 7 10 1012.5 - 0.0
21/07:30am 28.8 30.8 22.3 68 4.4 SSE 15 17 8 9 1012.0 - 0.0
21/07:00am 28.1 31.1 22.0 69 4.1 S 9 15 5 8 1011.8 - 0.0
21/06:00am 25.3 30.1 22.2 83 2.1 CALM 0 0 0 0 1011.1 1011.0 0.0
21/05:30am 25.2 29.6 22.1 83 2.1 SW 2 6 1 3 1010.8 - 0.0
21/05:00am 25.2 27.8 21.9 82 2.2 SE 11 13 6 7 1010.2 - 0.0
21/04:30am 25.4 27.6 21.8 80 2.4 ESE 13 15 7 8 1010.1 - 0.0
21/04:00am 25.6 28.7 22.2 81 2.3 SSE 9 15 5 8 1010.0 - 0.0
21/03:30am 25.6 28.9 22.5 83 2.1 SE 9 11 5 6 1010.0 - 0.0
21/03:00am 25.6 28.7 22.2 81 2.3 SSE 9 13 5 7 1010.1 1010.0 0.0
21/02:30am 26.4 28.4 21.6 75 3.2 SSE 13 17 7 9 1010.3 - 0.0
21/02:00am 26.4 28.8 21.6 75 3.2 S 11 17 6 9 1010.5 - 0.0
21/01:30am 26.6 29.1 21.7 74 3.3 S 11 15 6 8 1010.6 - 0.0
21/01:00am 26.3 29.1 21.5 75 3.2 S 9 13 5 7 1010.8 - 0.0
21/12:30am 26.5 28.5 21.5 74 3.3 S 13 19 7 10 1011.1 - 0.0
 
Date/Time
EST
Temp
°C
App
Temp
°C
Dew
Point
Rel
Hum
%
Delta-T
°C
Wind Press
QNH
hPa
Press
MSL
hPa
Rain
since 9 am
mm
Dir
 
Spd
km/h
Gust
km/h
Spd
kts
Gust
kts
20/11:30pm 26.9 29.7 21.5 72 3.6 S 9 11 5 6 1011.5 - 0.0
20/11:00pm 26.9 29.6 21.3 71 3.7 S 9 13 5 7 1011.3 - 0.0
20/10:30pm 26.6 28.8 21.2 72 3.6 S 11 15 6 8 1011.2 - 0.0
20/10:00pm 26.3 28.9 21.2 73 3.4 S 9 13 5 7 1011.3 - 0.0
20/09:30pm 26.8 30.4 21.2 71 3.7 S 4 11 2 6 1011.1 - 0.0
20/09:00pm 26.9 31.3 21.3 71 3.7 CALM 0 0 0 0 1010.9 1010.8 0.0
20/08:30pm 28.2 29.9 21.0 65 4.8 E 13 17 7 9 1010.8 - 0.0
20/08:00pm 28.3 30.1 21.1 65 4.8 E 13 20 7 11 1010.4 - 0.0
20/07:30pm 28.6 29.9 20.8 62 5.2 E 15 19 8 10 1010.1 - 0.0
20/07:00pm 28.7 29.8 20.5 61 5.4 E 15 22 8 12 1009.8 - 0.0
20/06:30pm 29.0 29.7 20.5 60 5.6 E 17 22 9 12 1009.7 - 0.0
20/06:00pm 29.3 29.8 20.9 60 5.6 E 19 22 10 12 1009.3 1009.2 0.0
20/05:30pm 29.6 30.1 21.1 60 5.7 E 20 28 11 15 1009.0 - 0.0
20/05:00pm 29.9 30.3 20.9 58 6.0 E 20 30 11 16 1008.6 - 0.0
20/04:30pm 30.5 30.2 21.1 57 6.3 ENE 24 33 13 18 1008.2 - 0.0
20/04:00pm 31.0 31.2 21.3 56 6.5 ENE 22 33 12 18 1008.3 - 0.0
20/03:30pm 32.5 32.1 21.6 52 7.4 ENE 26 33 14 18 1008.1 - 0.0
20/03:00pm 31.8 32.0 21.3 53 7.1 ENE 22 32 12 17 1008.5 1008.4 0.0
20/02:30pm 31.4 30.8 20.4 52 7.3 NE 24 32 13 17 1008.9 - 0.0
20/02:00pm 32.1 32.2 21.1 52 7.4 NE 22 28 12 15 1009.1 - 0.0
20/01:30pm 30.9 31.9 22.2 59 5.9 NE 20 28 11 15 1009.6 - 0.0
20/01:00pm 30.5 31.4 21.6 59 6.0 NE 19 26 10 14 1010.2 - 0.0
20/12:30pm 30.8 31.9 21.9 59 6.0 NE 19 26 10 14 1010.8 - 0.0
20/12:00pm 30.4 32.3 22.1 61 5.6 NE 15 22 8 12 1011.1 1011.0 0.0
20/11:30am 30.1 32.0 22.1 62 5.4 NE 15 22 8 12 1011.3 - 0.0
20/11:00am 30.3 32.8 22.4 62 5.4 NE 13 19 7 10 1011.5 - 0.0
20/10:30am 29.1 32.4 22.5 67 4.5 ENE 9 15 5 8 1011.7 - 0.0
20/10:00am 29.0 32.1 22.2 66 4.6 NNE 9 13 5 7 1011.7 - 0.0
20/09:30am 29.1 32.9 21.7 64 5.0 SSW 4 9 2 5 1011.6 - 0.0
20/09:00am 28.7 31.4 21.4 64 4.9 S 9 11 5 6 1011.8 1011.7 0.0
20/08:30am 28.5 30.9 20.8 63 5.1 SE 9 13 5 7 1011.8 - 0.0
20/08:00am 27.7 30.4 21.4 68 4.2 SE 9 11 5 6 1011.8 - 0.0
20/07:30am 27.2 30.6 21.7 72 3.7 SSW 6 9 3 5 1011.6 - 0.0
20/07:00am 27.3 30.6 21.8 72 3.7 E 7 11 4 6 1011.3 - 0.0
20/06:30am 26.9 30.1 21.3 71 3.7 W 6 9 3 5 1011.1 - 0.0
20/06:00am 25.8 27.4 22.1 80 2.5 SE 17 19 9 10 1010.6 1010.5 0.0
20/05:30am 25.9 28.5 21.9 78 2.7 SSE 11 17 6 9 1010.5 - 0.0
20/05:00am 26.3 28.8 21.7 76 3.1 SSE 11 15 6 8 1010.1 - 0.0
20/04:30am 26.6 28.9 21.3 72 3.5 S 11 15 6 8 1009.8 - 0.0
20/04:00am 26.6 28.9 21.3 72 3.5 S 11 13 6 7 1010.0 - 0.0
20/03:30am 26.5 29.1 21.2 72 3.5 S 9 15 5 8 1010.0 - 0.0
20/03:00am 26.5 28.3 21.2 72 3.5 S 13 19 7 10 1010.2 1010.1 0.0
20/02:30am 26.5 29.1 21.2 72 3.5 S 9 13 5 7 1010.4 - 0.0
20/02:00am 26.5 28.8 21.4 73 3.4 S 11 15 6 8 1010.5 - 0.0
20/01:30am 26.6 28.9 21.3 72 3.5 S 11 13 6 7 1010.6 - 0.0
20/01:00am 26.6 29.3 21.3 72 3.5 S 9 13 5 7 1010.8 - 0.0
20/12:30am 26.9 29.6 21.3 71 3.7 S 9 13 5 7 1011.3 - 0.0
20/12:00am 27.0 29.7 21.3 71 3.8 S 9 11 5 6 1011.7 1011.6 0.0
 
Date/Time
EST
Temp
°C
App
Temp
°C
Dew
Point
Rel
Hum
%
Delta-T
°C
Wind Press
QNH
hPa
Press
MSL
hPa
Rain
since 9 am
mm
Dir
 
Spd
km/h
Gust
km/h
Spd
kts
Gust
kts
19/11:30pm 26.7 29.8 21.4 72 3.5 S 7 11 4 6 1012.0 - 0.0
19/11:00pm 27.0 30.0 21.3 71 3.8 S 7 13 4 7 1012.0 - 0.0
19/10:30pm 27.5 29.4 21.3 69 4.1 SE 13 17 7 9 1012.1 - 0.0
19/10:00pm 27.9 29.7 21.1 66 4.5 SE 13 17 7 9 1011.9 - 0.0
19/09:30pm 27.7 29.5 21.1 67 4.4 ESE 13 15 7 8 1011.6 - 0.0
19/09:00pm 27.9 29.5 20.8 65 4.7 E 13 15 7 8 1011.3 1011.2 0.0
19/08:30pm 27.7 30.3 21.2 67 4.3 ENE 9 11 5 6 1010.9 - 0.0
19/08:00pm 27.3 30.3 21.3 69 4.0 ENE 7 9 4 5 1010.3 - 0.0
19/07:30pm 27.1 30.1 21.2 70 3.9 NE 7 11 4 6 1010.2 - 0.0
19/07:00pm 27.1 30.1 21.2 70 3.9 NE 7 11 4 6 1009.8 - 0.0
19/06:30pm 27.6 30.0 20.8 66 4.5 NNE 9 11 5 6 1009.6 - 0.0
19/06:00pm 28.6 30.5 20.6 62 5.3 NNE 11 15 6 8 1009.4 1009.3 0.0
19/05:30pm 29.1 31.0 20.5 59 5.7 NNE 11 17 6 9 1009.1 - 0.0
19/05:00pm 29.3 31.0 20.2 58 6.0 N 11 17 6 9 1008.8 - 0.0
19/04:30pm 29.3 30.5 19.8 56 6.2 NNE 13 17 7 9 1008.7 - 0.0
19/04:00pm 30.1 31.2 20.4 56 6.4 NNE 15 19 8 10 1008.7 - 0.0
19/03:30pm 29.9 31.0 20.4 56 6.3 NNE 15 22 8 12 1008.8 - 0.0
19/03:00pm 29.9 30.7 20.6 57 6.2 N 17 22 9 12 1009.1 1009.0 0.0
19/02:30pm 30.3 31.0 20.5 55 6.5 N 17 22 9 12 1009.3 - 0.0
19/02:00pm 30.0 30.8 20.7 57 6.2 NNE 17 26 9 14 1009.7 - 0.0
19/01:30pm 29.7 30.4 20.5 57 6.1 N 17 26 9 14 1010.2 - 0.0
19/01:00pm 30.6 30.9 20.7 55 6.6 N 20 28 11 15 1010.6 - 0.0
19/12:30pm 30.0 30.7 20.5 56 6.3 N 17 24 9 13 1011.0 - 0.0
19/12:00pm 30.4 31.3 20.8 56 6.4 NE 17 24 9 13 1011.3 1011.2 0.0
19/11:30am 29.8 30.5 20.4 57 6.2 NE 17 22 9 12 1011.8 - 0.0
19/11:00am 30.1 31.0 20.8 57 6.2 NE 17 28 9 15 1012.1 - 0.0
19/10:30am 29.9 31.1 20.7 57 6.1 NE 15 22 8 12 1012.2 - 0.0
19/10:00am 29.7 30.6 20.1 56 6.3 NE 15 19 8 10 1012.4 - 0.0
19/09:30am 30.0 31.3 20.1 55 6.5 NNE 13 19 7 10 1012.3 - 0.0
19/09:00am 29.9 32.2 20.7 57 6.1 SE 9 15 5 8 1012.5 1012.4 0.0
19/08:30am 28.5 31.0 21.0 64 5.0 SE 9 15 5 8 1012.5 - 0.0
19/08:00am 27.9 30.1 21.1 66 4.5 SE 11 15 6 8 1012.4 - 0.0
19/07:30am 26.0 27.9 21.3 75 3.1 SE 13 15 7 8 1012.3 - 0.0
19/07:00am 24.8 29.4 21.8 83 2.0 CALM 0 0 0 0 1012.3 - 0.0
19/06:30am 24.4 28.8 21.4 83 2.0 CALM 0 0 0 0 1011.8 - 0.0
19/06:00am 23.6 25.8 21.2 86 1.6 SE 11 11 6 6 1011.4 1011.3 0.0
19/05:30am 23.5 26.2 21.4 88 1.4 W 9 9 5 5 1010.8 - 0.0
19/05:00am 22.7 26.1 21.0 90 1.1 WNW 4 7 2 4 1010.4 - 0.0
19/04:30am 23.1 25.9 20.8 87 1.5 W 7 9 4 5 1010.4 - 0.0
19/04:00am 23.0 27.2 20.9 88 1.4 CALM 0 0 0 0 1010.1 - 0.0
19/03:30am 22.9 25.8 21.1 89 1.2 NNW 7 9 4 5 1010.2 - 0.0
19/03:00am 23.9 28.0 20.7 82 2.1 CALM 0 6 0 3 1010.4 1010.3 0.0
19/02:30am 24.1 27.5 20.2 79 2.5 WSW 2 7 1 4 1010.5 - 0.0
19/02:00am 24.1 25.8 20.2 79 2.5 S 11 15 6 8 1011.1 - 0.0
19/01:30am 23.7 26.4 20.6 83 2.0 N 7 13 4 7 1011.7 - 0.0
19/01:00am 23.4 26.3 21.0 86 1.6 N 7 9 4 5 1011.8 - 0.0
19/12:30am 24.7 27.6 20.7 78 2.6 NNE 6 7 3 4 1012.0 - 0.0
19/12:00am 24.3 27.7 21.6 85 1.8 W 6 7 3 4 1012.2 1012.1 0.0
 
Date/Time
EST
Temp
°C
App
Temp
°C
Dew
Point
Rel
Hum
%
Delta-T
°C
Wind Press
QNH
hPa
Press
MSL
hPa
Rain
since 9 am
mm
Dir
 
Spd
km/h
Gust
km/h
Spd
kts
Gust
kts
18/11:30pm 23.9 28.2 21.2 85 1.8 CALM 0 7 0 4 1011.7 - 0.0
18/11:00pm 23.8 28.3 21.5 87 1.5 CALM 0 0 0 0 1012.0 - 0.0
18/10:30pm 24.2 27.5 21.5 85 1.8 W 6 9 3 5 1011.9 - 0.0

Other Formats:

Comma delimited format used in spreadsheet applications
http://www.bom.gov.au/fwo/IDQ60801/IDQ60801.94287.axf

JavaScript Object Notation format (JSON) in row-major order
http://www.bom.gov.au/fwo/IDQ60801/IDQ60801.94287.json